Time;durP1;ratioP1;P1;durP2;ratioP2;P2;SDS_P1;SDS_P2;PMS_P1;PMS_P2;Temp;Humidity;BMP_temperature;BMP_pressure;BME280_temperature;BME280_humidity;BME280_pressure;Samples;Min_cycle;Max_cycle;Signal;HPM_P1;HPM_P2
2022/03/08 00:00:01;;;;;;;21.45;15.70;;;3.00;65.50;;;;;;5007121;28;20121;-79
2022/03/08 00:37:11;;;;;;;22.85;14.77;;;2.90;65.10;;;;;;4957717;28;20036;-78
2022/03/08 00:46:39;;;;;;;22.27;14.45;;;2.90;64.60;;;;;;4920133;29;20042;-78
2022/03/08 00:59:56;;;;;;;22.67;14.60;;;2.60;65.30;;;;;;4931222;29;20513;-78
2022/03/08 01:09:53;;;;;;;;;;;;;;;;;;;;;
2022/03/08 01:47:31;;;;;;;12.57;8.77;;;2.50;65.80;;;;;;4953700;28;20093;-79
2022/03/08 01:53:08;;;;;;;13.63;8.98;;;2.30;66.40;;;;;;4983072;28;19913;-79
2022/03/08 04:29:22;;;;;;;10.85;6.20;;;2.50;73.40;;;;;;5018259;28;20084;-78
2022/03/08 05:00:55;;;;;;;;;;;;;;;;;;;;;
2022/03/08 05:04:25;;;;;;;9.90;6.60;;;2.00;75.20;;;;;;4897102;29;20040;-79
2022/03/08 05:10:55;;;;;;;8.13;6.13;;;2.10;75.60;;;;;;4946951;29;20386;-79
2022/03/08 05:13:40;;;;;;;;;;;;;;;;;;;;;
2022/03/08 05:30:45;;;;;;;13.00;7.82;;;2.40;74.90;;;;;;4891906;28;20034;-79
2022/03/08 05:33:49;;;;;;;9.35;6.38;;;2.30;76.20;;;;;;5031440;28;20092;-79
2022/03/08 05:43:38;;;;;;;;;;;;;;;;;;;;;
2022/03/08 05:46:51;;;;;;;11.32;6.55;;;2.20;77.20;;;;;;4957032;28;20027;-79
2022/03/08 05:52:46;;;;;;;;;;;2.10;78.40;;;;;;4958453;28;20049;-78
2022/03/08 05:58:24;;;;;;;12.60;6.70;;;2.30;77.10;;;;;;4982361;28;20046;-79
2022/03/08 06:01:05;;;;;;;15.68;6.65;;;2.40;77.30;;;;;;4983320;28;20070;-79
2022/03/08 06:03:43;;;;;;;9.75;6.18;;;2.30;77.40;;;;;;4983442;28;20030;-78
2022/03/08 06:06:19;;;;;;;8.35;5.88;;;2.30;77.20;;;;;;5008697;28;20100;-78
2022/03/08 06:09:30;;;;;;;11.18;6.20;;;2.30;77.80;;;;;;5097493;28;20026;-78
2022/03/08 06:11:43;;;;;;;9.30;6.25;;;2.40;77.70;;;;;;5097462;28;20123;-78
2022/03/08 06:14:19;;;;;;;9.57;6.60;;;2.60;76.60;;;;;;5082558;28;20070;-78
2022/03/08 06:16:54;;;;;;;8.52;6.28;;;2.90;75.30;;;;;;5103689;28;20378;-79
2022/03/08 06:19:33;;;;;;;10.35;6.80;;;3.00;75.20;;;;;;5100867;28;20119;-78
2022/03/08 06:22:00;;;;;;;12.90;6.60;;;3.00;76.20;;;;;;5104257;28;20020;-78
2022/03/08 06:24:42;;;;;;;;;;;;;;;;;;;;;
2022/03/08 06:27:48;;;;;;;12.10;6.55;;;3.10;74.40;;;;;;5100260;28;20020;-78
2022/03/08 06:30:37;;;;;;;10.05;6.22;;;3.30;74.40;;;;;;5107508;28;20031;-79
2022/03/08 06:33:08;;;;;;;9.40;6.70;;;3.50;73.90;;;;;;5087403;28;20035;-78
2022/03/08 06:36:15;;;;;;;10.33;7.13;;;3.50;72.80;;;;;;5106728;28;20501;-79
2022/03/08 06:39:12;;;;;;;9.07;6.80;;;3.50;73.20;;;;;;5079976;28;20096;-79
2022/03/08 06:41:41;;;;;;;8.35;6.00;;;3.60;72.60;;;;;;5064605;28;20130;-79
2022/03/08 06:44:13;;;;;;;10.73;6.25;;;3.70;73.50;;;;;;5107327;28;20023;-79
2022/03/08 06:46:46;;;;;;;11.93;6.53;;;3.80;73.00;;;;;;5064615;28;20033;-79
2022/03/08 06:49:16;;;;;;;13.15;6.72;;;3.80;71.90;;;;;;5105553;28;20456;-79
2022/03/08 06:52:22;;;;;;;9.70;5.95;;;3.90;72.20;;;;;;5083066;28;20041;-79
2022/03/08 06:54:58;;;;;;;8.68;6.35;;;3.90;70.80;;;;;;5083644;27;20027;-80
2022/03/08 06:57:26;;;;;;;10.25;6.57;;;3.90;73.20;;;;;;5123457;27;20008;-79
2022/03/08 06:59:58;;;;;;;9.73;6.70;;;3.90;71.60;;;;;;5125807;27;20015;-79
2022/03/08 07:02:30;;;;;;;11.50;8.13;;;4.00;72.80;;;;;;5125792;27;20054;-79
2022/03/08 07:05:40;;;;;;;;;;;;;;;;;;;;;
2022/03/08 07:08:55;;;;;;;8.70;6.30;;;4.10;70.80;;;;;;5092583;27;20034;-80
2022/03/08 07:11:36;;;;;;;9.27;7.07;;;4.10;71.10;;;;;;5119944;27;20048;-79
2022/03/08 07:14:17;;;;;;;11.00;6.78;;;4.20;71.90;;;;;;5128483;27;20374;-79
2022/03/08 07:16:50;;;;;;;6.95;6.07;;;4.30;71.30;;;;;;5124228;27;20023;-79
2022/03/08 07:19:28;;;;;;;10.93;6.65;;;4.30;72.60;;;;;;5130410;27;20027;-79
2022/03/08 07:22:33;;;;;;;10.70;6.72;;;4.30;70.90;;;;;;5122094;27;20042;-79
2022/03/08 07:28:25;;;;;;;8.75;6.70;;;4.50;70.30;;;;;;5100635;27;20545;-80
2022/03/08 07:30:51;;;;;;;8.57;6.45;;;4.50;70.50;;;;;;5122602;27;20082;-79
2022/03/08 07:33:26;;;;;;;7.93;5.85;;;4.60;69.80;;;;;;5122507;27;20494;-79
2022/03/08 07:35:55;;;;;;;8.25;6.13;;;4.60;69.80;;;;;;5101526;28;20023;-79
2022/03/08 07:38:30;;;;;;;8.50;5.97;;;4.70;68.80;;;;;;5124347;27;20031;-80
2022/03/08 07:41:02;;;;;;;8.85;5.53;;;4.80;68.30;;;;;;5105943;28;20114;-79
2022/03/08 07:43:53;;;;;;;14.07;5.97;;;4.90;68.90;;;;;;5125787;27;20015;-79
2022/03/08 07:46:20;;;;;;;11.15;6.20;;;4.90;68.50;;;;;;5115704;27;20039;-79
2022/03/08 07:48:45;;;;;;;9.13;5.97;;;4.90;66.70;;;;;;5102209;28;20100;-79
2022/03/08 07:51:12;;;;;;;13.88;7.70;;;4.90;66.40;;;;;;5103016;28;20082;-79
2022/03/08 07:54:19;;;;;;;9.60;6.78;;;4.80;67.20;;;;;;5126804;27;20459;-79
2022/03/08 07:56:32;;;;;;;9.48;6.80;;;4.80;66.70;;;;;;5111522;27;20046;-79
2022/03/08 07:59:04;;;;;;;10.30;6.10;;;4.80;68.10;;;;;;5121296;27;20440;-77
2022/03/08 08:01:50;;;;;;;11.23;7.10;;;4.80;68.30;;;;;;5123762;27;20732;-78
2022/03/08 08:04:38;;;;;;;12.10;7.20;;;4.90;66.80;;;;;;5107026;27;20031;-84
2022/03/08 08:07:28;;;;;;;8.50;6.80;;;4.90;67.60;;;;;;5117643;27;20599;-78
2022/03/08 08:10:13;;;;;;;10.25;6.78;;;5.00;68.60;;;;;;5122523;27;20051;-77
2022/03/08 08:12:40;;;;;;;10.90;6.60;;;5.10;68.40;;;;;;5091441;27;20126;-78
2022/03/08 08:15:11;;;;;;;17.85;7.10;;;5.20;69.20;;;;;;5120211;27;20027;-78
2022/03/08 08:17:46;;;;;;;12.85;7.32;;;5.40;69.40;;;;;;5111680;27;20050;-77
2022/03/08 08:20:18;;;;;;;12.55;6.97;;;5.40;69.60;;;;;;5119213;27;20032;-77
2022/03/08 08:22:53;;;;;;;14.95;6.30;;;5.40;68.40;;;;;;5120478;27;20019;-77
2022/03/08 08:25:41;;;;;;;7.60;6.18;;;5.40;66.90;;;;;;5113224;27;20054;-77
2022/03/08 08:28:07;;;;;;;8.93;5.45;;;5.60;66.50;;;;;;5122365;27;20038;-78
2022/03/08 08:30:36;;;;;;;10.57;6.18;;;5.80;63.90;;;;;;5117058;27;20111;-77
2022/03/08 08:33:05;;;;;;;15.52;6.55;;;6.10;65.30;;;;;;5102320;27;20045;-77
2022/03/08 08:35:31;;;;;;;27.63;9.05;;;6.30;68.70;;;;;;5116624;27;20031;-77
2022/03/08 08:38:05;;;;;;;8.40;4.90;;;6.60;66.40;;;;;;5127356;27;20023;-77
2022/03/08 08:40:45;;;;;;;12.38;7.22;;;6.70;61.00;;;;;;5117641;27;20097;-78
2022/03/08 08:43:15;;;;;;;69.57;29.75;;;6.90;63.80;;;;;;5123041;27;20057;-77
2022/03/08 08:45:47;;;;;;;17.25;7.82;;;7.10;65.90;;;;;;5118562;27;20032;-78
2022/03/08 08:48:48;;;;;;;14.75;7.25;;;7.30;63.60;;;;;;5104309;27;20118;-78
2022/03/08 08:51:35;;;;;;;7.60;4.78;;;7.40;59.60;;;;;;5118321;27;20096;-78
2022/03/08 08:54:02;;;;;;;16.80;9.05;;;7.20;58.10;;;;;;5114926;27;20035;-77
2022/03/08 08:56:35;;;;;;;6.50;4.05;;;7.50;56.90;;;;;;5098002;28;20506;-77
2022/03/08 08:59:45;;;;;;;11.00;7.57;;;7.50;56.20;;;;;;5118737;27;20028;-77
2022/03/08 09:03:24;;;;;;;;;;;;;;;;;;;;;
2022/03/08 09:06:00;;;;;;;6.90;3.63;;;7.60;56.00;;;;;;5048353;27;20089;-78
2022/03/08 09:08:51;;;;;;;11.52;3.75;;;7.90;55.70;;;;;;5122136;27;20055;-78
2022/03/08 09:11:41;;;;;;;13.02;3.95;;;8.00;54.30;;;;;;5106239;27;20106;-78
2022/03/08 09:14:16;;;;;;;7.95;4.55;;;8.00;55.10;;;;;;5117613;27;20061;-78
2022/03/08 09:16:48;;;;;;;9.32;3.17;;;8.00;54.90;;;;;;5084391;28;20116;-78
2022/03/08 09:19:40;;;;;;;6.05;3.50;;;8.10;54.40;;;;;;5117819;27;20051;-78
2022/03/08 09:22:42;;;;;;;9.25;5.05;;;8.10;54.60;;;;;;5051053;28;20531;-78
2022/03/08 09:25:09;;;;;;;4.82;3.63;;;8.10;55.00;;;;;;5041632;28;20131;-78
2022/03/08 09:27:45;;;;;;;5.90;3.80;;;8.00;54.60;;;;;;5124255;27;20019;-78
2022/03/08 09:30:17;;;;;;;15.25;3.83;;;8.10;54.00;;;;;;5119206;27;20024;-77
2022/03/08 09:33:18;;;;;;;12.07;3.65;;;8.20;54.20;;;;;;5120449;27;20085;-78
2022/03/08 09:36:15;;;;;;;6.05;3.60;;;8.20;53.30;;;;;;5113802;27;20019;-78
2022/03/08 09:38:47;;;;;;;8.35;3.97;;;8.20;53.60;;;;;;5059618;28;20036;-78
2022/03/08 09:41:28;;;;;;;8.52;4.22;;;8.20;53.90;;;;;;5122803;27;20498;-78
2022/03/08 09:43:55;;;;;;;5.80;3.85;;;8.30;53.30;;;;;;5069102;28;20023;-78
2022/03/08 09:46:30;;;;;;;5.82;4.00;;;8.30;54.50;;;;;;5100540;28;20045;-78
2022/03/08 09:48:56;;;;;;;6.10;3.92;;;8.40;54.10;;;;;;5122894;27;20031;-78
2022/03/08 09:51:28;;;;;;;6.95;4.47;;;8.50;54.80;;;;;;5099726;28;20034;-78
2022/03/08 09:57:22;;;;;;;7.22;4.03;;;8.60;53.50;;;;;;5074648;28;20046;-78
2022/03/08 09:59:48;;;;;;;7.28;3.53;;;8.70;53.00;;;;;;5103314;28;20489;-78
2022/03/08 10:02:18;;;;;;;7.53;3.85;;;8.70;53.10;;;;;;5119643;28;20112;-78
2022/03/08 10:05:01;;;;;;;9.65;4.05;;;8.80;52.90;;;;;;5122398;28;20016;-78
2022/03/08 10:07:30;;;;;;;5.53;3.65;;;8.90;52.90;;;;;;5121405;28;20028;-78
2022/03/08 10:10:31;;;;;;;4.85;3.92;;;8.90;52.00;;;;;;5121221;28;20035;-77
2022/03/08 10:13:00;;;;;;;6.28;3.83;;;8.80;53.20;;;;;;5104791;28;20080;-77
2022/03/08 10:15:26;;;;;;;5.40;3.72;;;8.60;52.30;;;;;;5125299;28;20119;-77
2022/03/08 10:18:33;;;;;;;5.35;4.07;;;8.70;53.90;;;;;;5117788;28;20045;-78
2022/03/08 10:21:20;;;;;;;6.38;4.25;;;8.80;53.50;;;;;;5111841;28;20046;-77
2022/03/08 10:23:46;;;;;;;6.63;4.25;;;8.90;52.20;;;;;;5096410;28;20477;-77
2022/03/08 10:26:19;;;;;;;6.55;3.88;;;9.00;52.60;;;;;;5125048;28;20115;-77
2022/03/08 10:28:49;;;;;;;6.55;4.57;;;8.90;52.00;;;;;;5118252;28;20114;-78
2022/03/08 10:31:18;;;;;;;5.88;3.80;;;9.00;52.60;;;;;;5108001;28;20027;-77
2022/03/08 10:37:42;;;;;;;6.20;4.30;;;9.40;52.20;;;;;;4960953;28;20224;-77
2022/03/08 10:46:28;;;;;;;7.28;4.40;;;9.50;51.90;;;;;;4930193;29;20050;-77
2022/03/08 10:49:09;;;;;;;11.85;5.60;;;9.40;50.60;;;;;;5078817;28;20524;-77
2022/03/08 10:51:44;;;;;;;7.32;4.65;;;9.30;50.70;;;;;;5100954;28;20596;-77
2022/03/08 10:54:33;;;;;;;5.05;4.40;;;9.30;52.20;;;;;;5079395;28;20023;-77
2022/03/08 11:01:01;;;;;;;11.32;5.55;;;9.70;51.40;;;;;;5066228;28;20046;-77
2022/03/08 11:04:01;;;;;;;12.27;6.10;;;9.80;51.20;;;;;;5085493;28;20425;-77
2022/03/08 11:06:37;;;;;;;9.20;7.00;;;9.80;50.80;;;;;;5079469;28;20028;-77
2022/03/08 11:09:03;;;;;;;6.22;4.90;;;10.00;50.20;;;;;;5080835;28;20197;-77
2022/03/08 11:11:43;;;;;;;4.93;4.40;;;10.00;51.10;;;;;;5066535;28;20039;-78
2022/03/08 11:14:11;;;;;;;5.47;4.32;;;10.00;50.20;;;;;;5078695;28;20029;-77
2022/03/08 11:16:39;;;;;;;5.18;4.15;;;10.10;51.50;;;;;;5081357;28;20616;-77
2022/03/08 11:19:10;;;;;;;4.88;4.22;;;10.10;50.20;;;;;;5080861;28;20020;-77
2022/03/08 11:21:49;;;;;;;6.47;4.30;;;10.20;49.90;;;;;;5084651;28;20024;-77
2022/03/08 11:24:21;;;;;;;8.18;4.30;;;10.20;49.50;;;;;;5079205;28;20158;-77
2022/03/08 11:26:53;;;;;;;9.00;4.32;;;10.20;51.00;;;;;;5061661;28;20028;-77
2022/03/08 11:29:45;;;;;;;4.93;3.88;;;10.50;50.00;;;;;;5071896;28;20618;-77
2022/03/08 11:32:38;;;;;;;7.30;4.32;;;10.60;48.40;;;;;;5071971;28;20090;-77
2022/03/08 11:35:48;;;;;;;5.28;3.88;;;10.50;48.40;;;;;;5074299;28;20384;-77
2022/03/08 11:38:29;;;;;;;7.35;4.15;;;10.60;51.80;;;;;;5078328;28;20028;-78
2022/03/08 11:41:00;;;;;;;4.18;3.78;;;11.00;48.30;;;;;;5077980;28;20027;-77
2022/03/08 11:43:50;;;;;;;4.95;4.18;;;11.20;48.30;;;;;;5065048;28;20033;-77
2022/03/08 11:46:18;;;;;;;6.85;4.22;;;11.30;47.30;;;;;;5079123;28;20479;-77
2022/03/08 11:49:03;;;;;;;9.85;4.20;;;11.30;47.80;;;;;;5082285;28;20028;-77
2022/03/08 11:51:38;;;;;;;5.00;4.50;;;11.30;47.90;;;;;;5060928;28;20028;-77
2022/03/08 11:55:13;;;;;;;;;;;;;;;;;;;;;
2022/03/08 11:58:10;;;;;;;6.18;4.53;;;11.50;48.50;;;;;;5026262;28;20048;-77
2022/03/08 12:04:46;;;;;;;6.97;4.65;;;11.60;47.30;;;;;;5020160;28;20081;-77
2022/03/08 12:07:30;;;;;;;9.80;4.65;;;11.50;47.70;;;;;;5039562;28;20048;-77
2022/03/08 12:10:27;;;;;;;8.48;5.15;;;11.50;47.90;;;;;;5078618;28;20118;-77
2022/03/08 12:13:02;;;;;;;5.57;4.70;;;11.00;48.10;;;;;;5071281;28;20036;-78
2022/03/08 12:15:28;;;;;;;5.63;4.63;;;11.00;48.60;;;;;;5070460;28;20096;-77
2022/03/08 12:18:19;;;;;;;7.13;4.95;;;11.10;48.20;;;;;;5082087;28;20028;-77
2022/03/08 12:21:38;;;;;;;9.77;4.55;;;11.00;47.80;;;;;;5070799;28;20111;-77
2022/03/08 12:24:18;;;;;;;6.57;4.78;;;11.10;47.50;;;;;;5084415;28;20032;-77
2022/03/08 12:27:16;;;;;;;6.60;4.88;;;12.30;47.00;;;;;;5082412;28;20025;-77
2022/03/08 12:30:28;;;;;;;6.45;4.32;;;16.40;43.70;;;;;;5078473;28;20096;-77
2022/03/08 12:33:05;;;;;;;4.85;4.28;;;19.90;39.80;;;;;;5057754;28;20085;-77
2022/03/08 12:35:56;;;;;;;5.93;4.30;;;21.70;36.70;;;;;;5068545;28;20032;-77
2022/03/08 12:38:28;;;;;;;5.63;4.10;;;21.70;36.60;;;;;;5082084;28;20024;-78
2022/03/08 12:40:59;;;;;;;6.07;4.05;;;23.10;35.00;;;;;;5059776;28;20020;-78
2022/03/08 12:43:31;;;;;;;5.95;4.28;;;24.60;33.70;;;;;;5081831;28;20067;-78
2022/03/08 12:46:12;;;;;;;5.30;4.00;;;24.90;32.60;;;;;;5058685;28;20024;-78
2022/03/08 12:48:58;;;;;;;5.93;4.30;;;25.60;31.20;;;;;;5081395;28;20025;-78
2022/03/08 12:51:58;;;;;;;4.88;4.20;;;24.40;31.80;;;;;;5076250;28;20029;-77
2022/03/08 12:54:30;;;;;;;7.05;4.38;;;23.00;32.60;;;;;;5078118;28;20558;-77
2022/03/08 12:57:00;;;;;;;4.32;3.88;;;20.90;35.90;;;;;;5045308;28;20058;-78
2022/03/08 12:59:26;;;;;;;3.97;3.60;;;22.70;33.90;;;;;;5063877;28;20029;-78
2022/03/08 13:02:11;;;;;;;9.07;4.07;;;24.00;32.50;;;;;;5063247;28;20476;-78
2022/03/08 13:04:37;;;;;;;9.38;4.13;;;25.00;32.90;;;;;;5075649;28;20051;-78
2022/03/08 13:07:15;;;;;;;4.00;3.60;;;26.80;30.60;;;;;;5063227;28;20063;-78
2022/03/08 13:09:57;;;;;;;4.28;3.53;;;28.00;30.00;;;;;;5075955;28;20115;-78
2022/03/08 13:12:32;;;;;;;5.20;3.97;;;28.10;28.20;;;;;;5062870;28;20097;-78
2022/03/08 13:15:27;;;;;;;4.32;3.75;;;28.40;29.30;;;;;;5080121;28;20056;-78
2022/03/08 13:17:58;;;;;;;4.90;3.60;;;28.40;28.60;;;;;;5072227;28;20066;-78
2022/03/08 13:20:36;;;;;;;4.87;3.93;;;27.90;29.80;;;;;;5067909;28;20024;-78
2022/03/08 13:23:25;;;;;;;7.07;3.92;;;28.70;29.30;;;;;;5079202;28;20083;-78
2022/03/08 13:25:59;;;;;;;6.03;3.83;;;28.50;28.90;;;;;;5080164;28;20082;-78
2022/03/08 13:28:39;;;;;;;5.05;3.92;;;29.30;28.40;;;;;;5078722;28;20490;-80
2022/03/08 13:31:14;;;;;;;4.07;3.67;;;29.80;28.40;;;;;;5077940;28;20031;-84
2022/03/08 13:33:42;;;;;;;4.25;3.47;;;29.90;28.30;;;;;;5085352;28;20028;-79
2022/03/08 13:36:22;;;;;;;6.80;3.75;;;29.30;28.50;;;;;;5060545;28;20571;-79
2022/03/08 13:38:55;;;;;;;8.55;3.90;;;28.70;29.20;;;;;;5078718;28;20024;-79
2022/03/08 13:41:22;;;;;;;4.20;3.80;;;28.80;28.70;;;;;;5081142;28;20024;-80
2022/03/08 13:44:00;;;;;;;5.75;4.13;;;27.80;28.70;;;;;;5080862;28;20024;-78
2022/03/08 13:46:53;;;;;;;5.28;3.67;;;27.00;29.20;;;;;;5058809;28;20123;-79
2022/03/08 13:49:26;;;;;;;6.43;4.28;;;26.20;30.00;;;;;;5077709;28;20039;-77
2022/03/08 13:52:01;;;;;;;6.00;4.10;;;27.20;29.20;;;;;;5078764;28;20052;-78
2022/03/08 13:54:40;;;;;;;4.47;3.50;;;27.60;29.60;;;;;;5073386;28;20151;-78
2022/03/08 13:57:09;;;;;;;4.15;3.60;;;29.10;28.50;;;;;;5075928;28;20094;-78
2022/03/08 13:59:41;;;;;;;4.72;3.70;;;30.40;27.90;;;;;;5076176;28;20027;-79
2022/03/08 14:02:13;;;;;;;3.63;3.33;;;28.50;28.40;;;;;;5044886;28;20017;-78
2022/03/08 14:04:42;;;;;;;4.47;3.42;;;28.10;28.10;;;;;;5080862;28;20067;-78
2022/03/08 14:07:22;;;;;;;4.70;3.72;;;28.20;28.40;;;;;;5084435;28;20024;-78
2022/03/08 14:10:01;;;;;;;4.63;3.55;;;27.90;28.50;;;;;;5062708;28;20094;-77
2022/03/08 14:12:46;;;;;;;8.48;5.07;;;27.00;29.80;;;;;;5059067;28;20024;-77
2022/03/08 14:15:14;;;;;;;7.47;3.88;;;27.00;32.40;;;;;;5082089;28;20032;-77
2022/03/08 14:17:43;;;;;;;10.98;5.55;;;25.40;33.70;;;;;;5082688;28;20016;-78
2022/03/08 14:20:27;;;;;;;5.88;4.15;;;26.20;33.70;;;;;;5088343;28;20110;-78
2022/03/08 14:23:11;;;;;;;6.75;4.50;;;25.70;34.00;;;;;;5070239;28;20021;-77
2022/03/08 14:25:58;;;;;;;4.40;3.88;;;22.70;37.10;;;;;;5073308;28;20531;-77
2022/03/08 14:29:01;;;;;;;6.60;3.78;;;21.50;37.00;;;;;;5080066;28;20032;-77
2022/03/08 14:31:51;;;;;;;6.43;4.32;;;20.80;39.10;;;;;;5078542;28;20017;-77
2022/03/08 14:34:23;;;;;;;5.68;4.50;;;20.90;38.20;;;;;;5078460;28;20453;-77
2022/03/08 14:36:56;;;;;;;7.10;4.88;;;19.40;40.40;;;;;;5075927;28;20031;-77
2022/03/08 14:39:33;;;;;;;7.55;4.68;;;17.80;44.10;;;;;;5061152;28;20382;-77
2022/03/08 14:42:25;;;;;;;5.85;4.35;;;16.70;46.80;;;;;;5063843;28;20024;-78
2022/03/08 14:45:04;;;;;;;;;;;;;;;;;;;;;
2022/03/08 14:47:38;;;;;;;7.32;4.95;;;16.00;47.00;;;;;;5082986;28;20027;-77
2022/03/08 14:50:07;;;;;;;9.65;4.78;;;15.90;45.70;;;;;;5061510;28;20034;-77
2022/03/08 14:52:38;;;;;;;6.45;5.30;;;15.40;49.20;;;;;;5079419;28;20029;-77
2022/03/08 14:55:15;;;;;;;10.13;5.43;;;15.40;49.70;;;;;;5078817;28;20030;-77
2022/03/08 14:57:51;;;;;;;6.30;5.05;;;15.20;49.50;;;;;;5053997;28;20098;-77
2022/03/08 15:00:20;;;;;;;10.57;5.75;;;15.20;50.00;;;;;;5076162;28;20506;-77
2022/03/08 15:02:47;;;;;;;8.15;4.95;;;14.90;51.80;;;;;;5083480;28;20069;-78
2022/03/08 15:05:14;;;;;;;9.85;5.97;;;14.70;52.30;;;;;;5076102;28;20056;-77
2022/03/08 15:11:09;;;;;;;9.98;6.05;;;14.80;51.00;;;;;;4937216;28;20038;-78
2022/03/08 15:13:35;;;;;;;8.27;5.82;;;14.30;51.50;;;;;;5079921;28;20036;-77
2022/03/08 15:16:18;;;;;;;7.18;5.90;;;14.40;53.00;;;;;;5079698;28;20086;-76
2022/03/08 15:18:44;;;;;;;7.75;5.60;;;14.90;51.20;;;;;;5074270;28;20099;-77
2022/03/08 15:21:13;;;;;;;12.68;6.00;;;15.30;50.70;;;;;;5079484;28;20027;-76
2022/03/08 15:23:42;;;;;;;12.43;5.90;;;15.00;51.40;;;;;;5086474;28;20063;-76
2022/03/08 15:26:08;;;;;;;10.00;6.35;;;14.80;51.70;;;;;;5085865;28;20556;-76
2022/03/08 15:28:56;;;;;;;10.07;6.78;;;14.40;53.90;;;;;;5080974;28;20024;-75
2022/03/08 15:31:25;;;;;;;9.30;5.80;;;14.30;50.90;;;;;;5077957;28;20025;-76
2022/03/08 15:33:51;;;;;;;27.30;7.32;;;14.00;52.70;;;;;;5086899;28;20046;-80
2022/03/08 15:36:22;;;;;;;9.77;6.35;;;13.90;53.60;;;;;;5067345;28;20490;-77
2022/03/08 15:38:56;;;;;;;9.05;6.38;;;13.60;55.00;;;;;;5059711;28;20036;-76
2022/03/08 15:41:26;;;;;;;9.57;6.43;;;13.20;55.20;;;;;;5062267;28;20028;-76
2022/03/08 15:43:55;;;;;;;10.55;6.60;;;13.20;54.60;;;;;;5068126;28;20028;-76
2022/03/08 15:46:22;;;;;;;8.63;6.38;;;13.20;55.70;;;;;;5078464;28;20262;-77
2022/03/08 15:48:48;;;;;;;10.52;6.88;;;13.30;55.00;;;;;;5077957;28;20021;-79
2022/03/08 15:51:16;;;;;;;11.07;6.63;;;12.90;56.00;;;;;;5061282;28;20441;-78
2022/03/08 15:53:42;;;;;;;19.17;7.70;;;12.80;55.50;;;;;;5072830;28;20037;-80
2022/03/08 15:56:09;;;;;;;10.35;7.28;;;12.70;56.50;;;;;;5078787;28;20036;-79
2022/03/08 15:58:34;;;;;;;11.65;7.10;;;12.60;56.60;;;;;;5083308;28;20020;-78
2022/03/08 16:01:02;;;;;;;11.70;6.63;;;13.10;54.70;;;;;;5060859;28;20024;-79
2022/03/08 16:03:47;;;;;;;11.70;6.72;;;13.60;53.70;;;;;;5082045;28;20017;-80
2022/03/08 16:06:13;;;;;;;10.13;6.75;;;13.50;55.50;;;;;;5060696;28;20028;-79
2022/03/08 16:08:39;;;;;;;10.55;6.65;;;12.80;55.90;;;;;;5055805;28;20029;-80
2022/03/08 16:11:05;;;;;;;9.07;6.70;;;12.40;56.00;;;;;;5065093;28;20452;-79
2022/03/08 16:13:31;;;;;;;9.68;7.15;;;12.10;57.30;;;;;;5060925;28;20036;-79
2022/03/08 16:15:59;;;;;;;17.90;9.70;;;12.70;58.40;;;;;;5085633;28;20390;-84
2022/03/08 16:18:29;;;;;;;9.68;7.45;;;13.10;58.50;;;;;;5079233;28;20471;-81
2022/03/08 16:20:59;;;;;;;9.13;6.93;;;13.10;57.90;;;;;;5085191;28;20092;-77
2022/03/08 16:23:29;;;;;;;15.77;9.20;;;11.80;56.30;;;;;;5060796;28;20391;-79
2022/03/08 16:25:55;;;;;;;14.15;6.43;;;11.30;58.30;;;;;;5063447;28;20035;-77
2022/03/08 16:28:24;;;;;;;10.13;7.03;;;11.10;58.90;;;;;;5061881;28;20119;-76
2022/03/08 16:30:50;;;;;;;10.88;7.68;;;10.90;59.70;;;;;;5060266;28;20119;-77
2022/03/08 16:33:16;;;;;;;10.45;7.32;;;10.60;60.40;;;;;;5064223;28;20123;-78
2022/03/08 16:35:45;;;;;;;11.38;7.40;;;10.00;60.70;;;;;;5060116;28;20705;-77
2022/03/08 16:38:11;;;;;;;17.77;7.75;;;9.40;61.00;;;;;;5079874;28;20696;-75
2022/03/08 16:40:45;;;;;;;11.57;7.90;;;9.10;62.50;;;;;;5065996;28;20131;-77
2022/03/08 16:43:11;;;;;;;11.32;7.95;;;8.90;64.30;;;;;;5080958;28;20475;-77
2022/03/08 16:45:38;;;;;;;11.85;8.00;;;8.60;66.40;;;;;;5083633;28;20035;-77
2022/03/08 16:48:06;;;;;;;15.27;9.15;;;8.40;68.30;;;;;;5082016;28;20111;-82
2022/03/08 16:50:35;;;;;;;15.80;8.52;;;8.20;72.00;;;;;;5060223;28;20494;-74
2022/03/08 16:53:01;;;;;;;15.63;9.63;;;8.00;71.10;;;;;;5082275;28;20036;-76
2022/03/08 16:55:28;;;;;;;11.93;9.05;;;8.00;71.90;;;;;;5077667;28;20067;-79
2022/03/08 16:57:54;;;;;;;21.55;10.68;;;7.90;74.30;;;;;;5063656;28;20031;-79
2022/03/08 17:00:20;;;;;;;13.65;9.80;;;7.80;77.10;;;;;;5077952;28;20028;-77
2022/03/08 17:02:46;;;;;;;15.30;10.57;;;7.70;79.80;;;;;;5081281;28;20012;-77
2022/03/08 17:05:15;;;;;;;24.90;11.73;;;7.60;81.60;;;;;;5062283;28;20051;-81
2022/03/08 17:07:40;;;;;;;16.55;10.20;;;7.50;82.30;;;;;;5079581;28;20024;-79
2022/03/08 17:10:08;;;;;;;15.98;10.80;;;7.40;83.60;;;;;;5059573;28;20191;-78
2022/03/08 17:12:35;;;;;;;17.23;10.48;;;7.30;83.90;;;;;;5063392;28;20036;-77
2022/03/08 17:15:01;;;;;;;19.15;12.48;;;7.30;83.20;;;;;;5079106;28;20027;-79
2022/03/08 17:17:43;;;;;;;18.08;11.68;;;7.30;84.00;;;;;;5060640;28;20081;-81
2022/03/08 17:20:10;;;;;;;16.00;11.75;;;7.20;84.60;;;;;;5057384;28;20526;-82
2022/03/08 17:22:36;;;;;;;20.40;11.73;;;7.20;85.70;;;;;;5047258;28;20021;-78
2022/03/08 17:25:04;;;;;;;16.88;10.85;;;7.20;87.30;;;;;;5078449;28;20027;-79
2022/03/08 17:27:31;;;;;;;18.38;12.40;;;7.10;87.40;;;;;;5078397;28;20012;-79
2022/03/08 17:29:58;;;;;;;35.65;15.30;;;7.10;87.60;;;;;;5046194;28;20131;-79
2022/03/08 17:32:25;;;;;;;354.23;142.40;;;7.10;88.20;;;;;;5079391;28;20016;-78
2022/03/08 17:34:51;;;;;;;16.30;11.18;;;7.10;87.30;;;;;;5076132;28;20103;-78
2022/03/08 17:37:17;;;;;;;15.18;10.60;;;7.10;84.60;;;;;;5082873;28;20591;-78
2022/03/08 17:39:54;;;;;;;20.05;11.40;;;7.10;83.30;;;;;;5080668;28;20028;-79
2022/03/08 17:42:20;;;;;;;15.90;10.55;;;7.10;85.00;;;;;;5082701;28;20028;-78
2022/03/08 17:44:45;;;;;;;18.10;12.27;;;7.10;86.00;;;;;;5085708;28;20043;-78
2022/03/08 17:47:11;;;;;;;18.25;12.32;;;7.00;86.80;;;;;;5083177;28;20032;-78
2022/03/08 17:49:38;;;;;;;18.35;12.18;;;7.00;87.70;;;;;;5061794;28;20050;-79
2022/03/08 17:52:10;;;;;;;19.55;11.38;;;7.00;88.40;;;;;;5060149;28;20021;-78
2022/03/08 17:54:35;;;;;;;19.33;12.33;;;6.90;89.10;;;;;;5085610;28;20031;-78
2022/03/08 17:57:08;;;;;;;24.73;12.77;;;6.90;90.00;;;;;;5099598;28;20720;-78
2022/03/08 17:59:49;;;;;;;16.70;11.93;;;6.90;90.10;;;;;;5099612;28;20103;-79
2022/03/08 18:02:16;;;;;;;21.60;12.43;;;6.90;87.90;;;;;;5102187;27;20028;-78
2022/03/08 18:04:51;;;;;;;20.42;11.73;;;6.90;86.60;;;;;;5106206;28;20036;-78
2022/03/08 18:07:20;;;;;;;22.40;12.27;;;6.80;86.70;;;;;;5098022;28;20069;-78
2022/03/08 18:12:38;;;;;;;20.87;13.37;;;6.70;85.90;;;;;;5081067;28;20039;-79
2022/03/08 18:15:19;;;;;;;26.45;14.43;;;6.60;87.90;;;;;;5107956;28;20280;-78
2022/03/08 18:18:01;;;;;;;33.50;18.58;;;6.50;88.20;;;;;;5077781;28;20028;-79
2022/03/08 18:20:53;;;;;;;29.33;15.57;;;6.30;89.00;;;;;;5092918;28;20023;-79
2022/03/08 18:23:19;;;;;;;20.02;12.65;;;6.20;88.30;;;;;;5104656;28;20066;-79
2022/03/08 18:25:45;;;;;;;64.38;30.48;;;6.20;88.90;;;;;;5103215;28;20023;-79
2022/03/08 18:28:34;;;;;;;27.90;15.00;;;6.10;90.00;;;;;;5083078;28;20028;-79
2022/03/08 18:31:04;;;;;;;31.50;13.82;;;6.00;90.10;;;;;;5090340;28;20062;-78
2022/03/08 18:33:30;;;;;;;23.95;13.45;;;6.00;89.30;;;;;;5086552;28;20399;-79
2022/03/08 18:36:05;;;;;;;27.35;14.30;;;6.10;90.00;;;;;;5085582;28;20031;-79
2022/03/08 18:38:37;;;;;;;26.00;14.85;;;6.00;90.90;;;;;;5084512;28;20059;-79
2022/03/08 18:41:12;;;;;;;30.93;15.43;;;5.90;90.90;;;;;;5084189;28;20368;-79
2022/03/08 18:43:38;;;;;;;25.35;15.02;;;5.80;91.80;;;;;;5104696;28;20031;-79
2022/03/08 18:46:07;;;;;;;27.85;15.70;;;5.60;92.30;;;;;;5098699;28;20028;-78
2022/03/08 18:48:32;;;;;;;22.98;14.68;;;5.50;93.00;;;;;;5106431;28;20035;-79
2022/03/08 18:51:04;;;;;;;24.92;14.60;;;5.40;93.70;;;;;;5102806;28;20112;-79
2022/03/08 18:53:42;;;;;;;34.45;21.85;;;5.30;93.70;;;;;;5105513;28;20067;-78
2022/03/08 18:56:18;;;;;;;28.33;16.30;;;5.20;93.50;;;;;;5105968;28;20045;-79
2022/03/08 18:58:45;;;;;;;29.92;18.80;;;5.10;93.60;;;;;;5094556;28;20059;-78
2022/03/08 19:01:11;;;;;;;25.27;14.38;;;5.00;93.40;;;;;;5081952;28;20043;-78
2022/03/08 19:03:42;;;;;;;18.95;12.15;;;4.90;93.10;;;;;;5104308;28;20024;-78
2022/03/08 19:06:09;;;;;;;20.75;13.00;;;4.90;93.40;;;;;;5100234;28;20044;-78
2022/03/08 19:08:35;;;;;;;23.30;13.00;;;4.90;93.20;;;;;;5106656;28;20496;-79
2022/03/08 19:11:02;;;;;;;23.23;15.38;;;4.80;91.80;;;;;;5087664;28;20114;-78
2022/03/08 19:13:34;;;;;;;29.20;16.63;;;4.80;92.40;;;;;;5102235;28;20508;-78
2022/03/08 19:16:00;;;;;;;24.33;14.70;;;4.70;92.50;;;;;;5084325;28;20024;-79
2022/03/08 19:18:26;;;;;;;22.95;13.55;;;4.60;92.90;;;;;;5086794;28;20076;-79
2022/03/08 19:20:52;;;;;;;20.27;12.57;;;4.50;93.10;;;;;;5103284;28;20068;-78
2022/03/08 19:23:18;;;;;;;24.48;12.38;;;4.50;91.90;;;;;;5084874;28;20031;-78
2022/03/08 19:25:45;;;;;;;22.35;14.02;;;4.40;92.60;;;;;;5081176;28;20382;-78